Time;durP1;ratioP1;P1;durP2;ratioP2;P2;SDS_P1;SDS_P2;PMS_P1;PMS_P2;Temp;Humidity;BMP_temperature;BMP_pressure;BME280_temperature;BME280_humidity;BME280_pressure;Samples;Min_cycle;Max_cycle;Signal;HPM_P1;HPM_P2
2022/08/30 00:01:27;;;;;;;;;4.67;4.00;;;;;23.38;48.96;101459.84;5077521;27;45433;-72
2022/08/30 00:03:54;;;;;;;;;6.33;3.33;;;;;23.35;48.85;101458.16;5077946;28;45301;-73
2022/08/30 00:06:20;;;;;;;;;2.67;2.67;;;;;23.36;49.10;101459.03;5076965;28;47248;-73
2022/08/30 00:08:47;;;;;;;;;4.33;4.00;;;;;23.32;48.92;101457.38;5062272;28;45912;-73
2022/08/30 00:11:16;;;;;;;;;4.00;3.00;;;;;23.28;49.25;101462.00;5053526;28;45269;-72
2022/08/30 00:13:44;;;;;;;;;5.00;3.33;;;;;23.25;49.12;101457.56;5056663;28;45357;-72
2022/08/30 00:16:11;;;;;;;;;7.00;4.00;;;;;23.25;49.13;101470.16;5067440;28;47354;-72
2022/08/30 00:18:37;;;;;;;;;4.67;4.00;;;;;23.25;49.31;101483.63;5057116;28;45321;-72
2022/08/30 00:21:04;;;;;;;;;3.00;3.00;;;;;23.19;49.52;101473.03;5055441;28;45582;-72
2022/08/30 00:23:29;;;;;;;;;3.67;3.00;;;;;23.21;49.29;101476.56;5057645;28;45602;-73
2022/08/30 00:25:55;;;;;;;;;4.00;4.00;;;;;23.21;49.47;101477.44;5057265;28;47423;-72
2022/08/30 00:28:20;;;;;;;;;6.33;3.67;;;;;23.18;49.63;101477.56;5056860;28;63286;-72
2022/08/30 00:30:46;;;;;;;;;6.33;5.00;;;;;23.18;49.63;101480.25;5058122;28;45381;-72
2022/08/30 00:33:13;;;;;;;;;5.00;3.00;;;;;23.13;49.45;101467.84;5057063;28;45619;-72
2022/08/30 00:35:39;;;;;;;;;3.00;3.00;;;;;23.16;50.00;101473.13;5056609;28;53943;-73
2022/08/30 00:38:05;;;;;;;;;4.67;4.00;;;;;23.16;50.27;101463.22;5065071;28;45298;-72
2022/08/30 00:40:32;;;;;;;;;4.67;4.00;;;;;23.12;49.88;101444.53;5059740;28;45477;-72
2022/08/30 00:42:59;;;;;;;;;4.00;4.00;;;;;23.15;49.82;101461.47;5058111;28;45355;-72
2022/08/30 00:45:34;;;;;;;;;5.00;4.00;;;;;23.12;49.99;101452.63;5056438;28;46152;-72
2022/08/30 00:47:59;;;;;;;;;4.33;4.00;;;;;23.15;50.13;101455.22;5057496;28;45480;-72
2022/08/30 00:50:30;;;;;;;;;5.00;5.00;;;;;23.12;50.01;101445.44;5065890;28;45202;-72
2022/08/30 00:52:58;;;;;;;;;4.67;3.00;;;;;23.13;50.33;101443.59;5061487;28;45271;-72
2022/08/30 00:55:24;;;;;;;;;3.00;3.00;;;;;23.16;50.01;101451.56;5057848;28;46616;-72
2022/08/30 00:57:51;;;;;;;;;5.33;4.00;;;;;23.13;50.00;101449.00;5037052;28;53519;-72
2022/08/30 01:00:17;;;;;;;;;5.67;5.00;;;;;23.12;50.50;101455.31;5054720;28;45556;-72
2022/08/30 01:02:42;;;;;;;;;4.00;4.00;;;;;23.14;50.13;101467.78;5054979;28;58982;-72
2022/08/30 01:05:12;;;;;;;;;5.67;3.67;;;;;23.15;50.08;101464.16;5057776;28;46224;-72
2022/08/30 01:07:38;;;;;;;;;3.33;3.33;;;;;23.11;50.42;101459.78;5037967;28;45413;-72
2022/08/30 01:10:05;;;;;;;;;5.67;4.00;;;;;23.08;50.56;101453.66;5052120;28;45445;-73
2022/08/30 01:12:31;;;;;;;;;5.33;4.00;;;;;23.07;50.47;101458.16;5038303;28;45447;-72
2022/08/30 01:14:56;;;;;;;;;4.00;4.00;;;;;23.04;50.62;101457.34;5037582;28;64146;-71
2022/08/30 01:17:22;;;;;;;;;8.00;5.00;;;;;22.99;50.48;101457.50;5065991;28;45433;-72
2022/08/30 01:20:04;;;;;;;;;6.00;4.00;;;;;23.02;50.45;101457.41;5055532;28;52499;-73
2022/08/30 01:22:35;;;;;;;;;5.33;4.00;;;;;23.00;50.51;101473.59;5057628;28;45355;-72
2022/08/30 01:25:02;;;;;;;;;4.33;4.33;;;;;22.95;50.87;101461.19;5037977;28;47762;-72
2022/08/30 01:27:29;;;;;;;;;3.33;3.33;;;;;22.98;50.97;101478.16;5045561;28;45523;-72
2022/08/30 01:29:56;;;;;;;;;4.67;4.33;;;;;22.94;50.70;101470.22;5043058;28;45613;-72
2022/08/30 01:32:25;;;;;;;;;6.67;4.00;;;;;22.94;51.13;101472.91;5055418;28;45543;-72
2022/08/30 01:34:50;;;;;;;;;7.00;5.00;;;;;22.94;50.84;101470.22;5056821;28;46669;-72
2022/08/30 01:37:22;;;;;;;;;3.67;3.67;;;;;22.93;50.77;101480.09;5069261;28;45512;-72
2022/08/30 01:39:48;;;;;;;;;4.33;4.33;;;;;22.91;50.88;101479.28;5057235;28;45407;-72
2022/08/30 01:42:16;;;;;;;;;4.00;4.00;;;;;22.93;50.88;101482.81;5054672;28;57992;-72
2022/08/30 01:44:41;;;;;;;;;5.00;4.67;;;;;22.93;51.20;101481.91;5068176;28;47848;-72
2022/08/30 01:47:07;;;;;;;;;6.67;4.00;;;;;22.90;50.97;101485.56;5066964;28;45579;-72
2022/08/30 01:49:32;;;;;;;;;6.67;5.67;;;;;22.94;51.01;101489.06;5054933;28;63137;-74
2022/08/30 01:51:57;;;;;;;;;5.67;3.00;;;;;22.95;50.98;101488.13;5056058;28;57068;-72
2022/08/30 01:54:23;;;;;;;;;3.33;3.33;;;;;22.94;51.13;101476.47;5047118;28;46279;-72
2022/08/30 01:56:48;;;;;;;;;7.00;4.00;;;;;22.94;51.04;101478.28;5064820;28;70575;-72
2022/08/30 01:59:13;;;;;;;;;4.00;4.00;;;;;22.91;50.93;101476.59;5053837;28;45771;-72
2022/08/30 02:01:39;;;;;;;;;4.00;3.00;;;;;22.90;51.21;101479.31;5056972;28;45553;-75
2022/08/30 02:04:06;;;;;;;;;4.67;3.00;;;;;22.90;51.08;101474.78;5019711;28;46895;-73
2022/08/30 02:06:32;;;;;;;;;4.00;4.00;;;;;22.89;51.30;101472.16;5037934;28;45405;-72
2022/08/30 02:08:58;;;;;;;;;6.67;4.00;;;;;22.93;51.00;101487.31;5054522;28;45614;-72
2022/08/30 02:11:24;;;;;;;;;5.00;4.67;;;;;22.89;51.11;101497.28;5052468;28;45635;-75
2022/08/30 02:13:49;;;;;;;;;4.00;4.00;;;;;22.90;51.24;101515.19;5056158;28;46344;-72
2022/08/30 02:16:17;;;;;;;;;5.33;4.67;;;;;22.86;51.12;101512.63;5053955;28;45420;-72
2022/08/30 02:18:43;;;;;;;;;7.67;6.67;;;;;22.85;51.29;101521.59;5054399;28;45320;-72
2022/08/30 02:21:09;;;;;;;;;4.33;4.00;;;;;22.81;51.32;101512.75;5055301;28;57767;-71
2022/08/30 02:23:35;;;;;;;;;4.67;3.67;;;;;22.75;51.73;101505.75;5056497;28;46196;-72
2022/08/30 02:26:01;;;;;;;;;4.33;3.33;;;;;22.77;51.45;101497.63;5054923;28;45675;-73
2022/08/30 02:28:27;;;;;;;;;8.00;5.00;;;;;22.83;52.01;101513.59;5056177;28;45515;-73
2022/08/30 02:30:53;;;;;;;;;7.00;7.00;;;;;22.84;53.26;101507.25;5055555;28;45366;-73
2022/08/30 02:33:18;;;;;;;;;7.00;5.00;;;;;22.83;56.08;101497.44;5054444;28;47395;-72
2022/08/30 02:35:43;;;;;;;;;8.00;5.67;;;;;22.75;60.12;101488.72;5057394;28;55097;-72
2022/08/30 02:38:10;;;;;;;;;9.00;6.00;;;;;22.60;62.32;101484.63;5069160;28;45458;-73
2022/08/30 02:40:35;;;;;;;;;4.00;4.00;;;;;22.53;64.39;101492.91;5070771;28;45506;-73
2022/08/30 02:43:01;;;;;;;;;7.67;4.33;;;;;22.32;67.40;101498.00;5059096;28;46725;-73
2022/08/30 02:45:26;;;;;;;;;5.00;5.00;;;;;22.19;70.38;101507.28;5061073;28;63749;-73
2022/08/30 02:47:52;;;;;;;;;6.33;5.00;;;;;22.02;73.23;101496.06;5067222;28;45349;-72
2022/08/30 02:50:18;;;;;;;;;6.33;5.33;;;;;21.90;75.21;101508.91;5057095;28;45360;-73
2022/08/30 02:52:43;;;;;;;;;8.67;5.00;;;;;21.78;79.33;101501.13;5057667;28;45737;-73
2022/08/30 02:55:10;;;;;;;;;7.00;7.00;;;;;21.61;81.93;101496.16;5028142;28;45554;-73
2022/08/30 02:57:36;;;;;;;;;8.67;6.67;;;;;21.55;83.24;101511.56;5050664;28;45544;-73
2022/08/30 03:00:05;;;;;;;;;5.67;5.67;;;;;21.40;86.10;101507.41;5058760;28;45359;-72
2022/08/30 03:02:30;;;;;;;;;7.00;7.00;;;;;21.33;87.60;101505.81;5045797;28;45476;-74
2022/08/30 03:04:56;;;;;;;;;8.00;7.00;;;;;21.23;90.12;101505.09;5057484;28;65249;-72
2022/08/30 03:07:21;;;;;;;;;8.67;5.67;;;;;21.13;93.19;101511.56;5058288;28;45651;-72
2022/08/30 03:09:47;;;;;;;;;6.00;6.00;;;;;21.05;94.14;101506.38;5058799;28;45707;-72
2022/08/30 03:12:12;;;;;;;;;6.00;6.00;;;;;20.99;97.12;101511.91;5052462;28;55354;-73
2022/08/30 03:14:38;;;;;;;;;10.67;8.00;;;;;20.91;98.36;101512.03;5052851;28;45396;-73
2022/08/30 03:17:05;;;;;;;;;10.00;7.00;;;;;20.87;99.40;101506.75;5058120;28;62722;-72
2022/08/30 03:19:31;;;;;;;;;8.00;8.00;;;;;20.87;100.00;101490.66;5059272;28;45909;-72
2022/08/30 03:21:57;;;;;;;;;9.00;7.00;;;;;20.82;100.00;101482.69;5040439;28;46373;-73
2022/08/30 03:24:22;;;;;;;;;6.67;6.67;;;;;20.85;100.00;101493.38;5058620;28;62280;-73
2022/08/30 03:26:48;;;;;;;;;9.67;8.00;;;;;20.83;100.00;101495.22;5055637;28;60402;-72
2022/08/30 03:29:13;;;;;;;;;8.67;7.67;;;;;20.79;100.00;101493.50;5055976;28;59559;-72
2022/08/30 03:31:38;;;;;;;;;10.00;8.67;;;;;20.76;100.00;101488.19;5057748;28;46167;-72
2022/08/30 03:34:04;;;;;;;;;7.00;7.00;;;;;20.74;100.00;101479.31;5062908;28;60552;-74
2022/08/30 03:36:30;;;;;;;;;7.00;7.00;;;;;20.75;100.00;101474.81;5057527;28;45330;-72
2022/08/30 03:38:56;;;;;;;;;7.67;6.33;;;;;20.71;100.00;101457.88;5057657;28;45444;-72
2022/08/30 03:41:23;;;;;;;;;7.00;7.00;;;;;20.75;100.00;101453.34;5056503;28;47343;-72
2022/08/30 03:43:48;;;;;;;;;8.67;7.00;;;;;20.74;100.00;101448.91;5056265;28;45417;-72
2022/08/30 03:46:14;;;;;;;;;7.00;7.00;;;;;20.67;100.00;101434.72;5040980;28;45563;-72
2022/08/30 03:48:40;;;;;;;;;7.00;7.00;;;;;20.62;100.00;101432.13;5056837;28;49885;-72
2022/08/30 03:51:05;;;;;;;;;5.67;5.67;;;;;20.59;100.00;101434.00;5073836;28;65227;-72
2022/08/30 03:53:30;;;;;;;;;10.00;6.33;;;;;20.57;100.00;101430.47;5057745;28;64885;-73
2022/08/30 03:55:56;;;;;;;;;8.00;7.00;;;;;20.56;100.00;101426.00;5066302;28;57956;-73
2022/08/30 03:58:21;;;;;;;;;7.33;6.00;;;;;20.53;100.00;101413.53;5062442;28;56330;-74
2022/08/30 04:00:46;;;;;;;;;6.33;6.33;;;;;20.51;100.00;101414.50;5074139;28;46495;-72
2022/08/30 04:03:12;;;;;;;;;8.00;7.00;;;;;20.45;100.00;101398.47;5066582;28;47723;-74
2022/08/30 04:05:38;;;;;;;;;7.33;5.67;;;;;20.46;100.00;101408.31;5057573;28;45552;-74
2022/08/30 04:08:03;;;;;;;;;7.00;6.00;;;;;20.44;100.00;101412.81;5063366;28;45431;-73
2022/08/30 04:10:28;;;;;;;;;6.67;5.67;;;;;20.40;100.00;101414.69;5070095;28;65056;-72
2022/08/30 04:12:54;;;;;;;;;10.33;7.00;;;;;20.39;100.00;101419.13;5049644;28;69642;-72
2022/08/30 04:15:20;;;;;;;;;6.00;6.00;;;;;20.36;100.00;101411.19;5047425;28;45306;-73
2022/08/30 04:17:46;;;;;;;;;10.67;7.67;;;;;20.33;100.00;101411.22;5067721;28;45345;-73
2022/08/30 04:20:11;;;;;;;;;9.33;7.67;;;;;20.31;100.00;101410.38;5056047;28;45483;-74
2022/08/30 04:22:37;;;;;;;;;6.33;6.00;;;;;20.29;100.00;101409.50;5043939;28;63567;-72
2022/08/30 04:25:05;;;;;;;;;9.67;8.00;;;;;20.27;100.00;101416.72;5055223;28;63884;-73
2022/08/30 04:27:31;;;;;;;;;10.33;7.67;;;;;20.26;100.00;101420.31;5042885;28;45400;-72
2022/08/30 04:29:57;;;;;;;;;12.67;6.67;;;;;20.18;100.00;101422.25;5057744;28;46286;-72
2022/08/30 04:32:23;;;;;;;;;11.00;9.00;;;;;20.19;100.00;101428.50;5042543;28;45507;-74
2022/08/30 04:34:48;;;;;;;;;7.67;7.00;;;;;20.10;100.00;101417.06;5060064;28;62222;-74
2022/08/30 04:37:13;;;;;;;;;7.33;7.00;;;;;20.08;100.00;101418.88;5076145;28;45521;-74
2022/08/30 04:39:40;;;;;;;;;8.00;8.00;;;;;20.00;100.00;101414.56;5076491;28;67424;-72
2022/08/30 04:42:05;;;;;;;;;9.00;7.00;;;;;19.97;100.00;101419.97;5037590;28;45485;-72
2022/08/30 04:44:31;;;;;;;;;10.33;6.67;;;;;19.93;100.00;101413.81;5040477;28;45502;-75
2022/08/30 04:46:56;;;;;;;;;6.67;6.67;;;;;19.91;100.00;101407.56;5052561;28;45384;-72
2022/08/30 04:49:22;;;;;;;;;9.33;6.00;;;;;19.88;100.00;101404.97;5034200;28;45902;-73
2022/08/30 04:51:47;;;;;;;;;8.33;8.33;;;;;19.87;100.00;101411.25;5049563;28;45350;-73
2022/08/30 04:54:12;;;;;;;;;10.00;10.00;;;;;19.83;100.00;101412.19;5061568;28;45336;-71
2022/08/30 04:56:38;;;;;;;;;7.00;6.33;;;;;19.82;100.00;101421.16;5074998;28;61164;-72
2022/08/30 04:59:03;;;;;;;;;9.33;9.33;;;;;19.78;100.00;101420.31;5062870;28;68059;-72
2022/08/30 05:01:30;;;;;;;;;11.33;10.00;;;;;19.72;100.00;101416.88;5043566;28;45560;-74
2022/08/30 05:03:57;;;;;;;;;8.67;8.67;;;;;19.72;100.00;101417.75;5057808;28;45370;-72
2022/08/30 05:06:24;;;;;;;;;8.00;8.00;;;;;19.69;100.00;101420.47;5038841;28;45524;-72
2022/08/30 05:08:51;;;;;;;;;9.33;7.67;;;;;19.59;100.00;101411.69;5056496;28;47438;-72
2022/08/30 05:11:17;;;;;;;;;8.33;8.33;;;;;19.62;100.00;101429.53;5053889;28;45536;-72
2022/08/30 05:13:43;;;;;;;;;6.67;6.00;;;;;19.60;100.00;101436.69;5052180;28;45564;-71
2022/08/30 05:16:09;;;;;;;;;10.67;9.00;;;;;19.57;100.00;101436.72;5070122;28;45277;-72
2022/08/30 05:18:35;;;;;;;;;7.00;7.00;;;;;19.51;100.00;101423.44;5056207;28;45507;-71
2022/08/30 05:21:05;;;;;;;;;10.00;8.33;;;;;19.53;100.00;101441.25;5046840;28;45475;-73
2022/08/30 05:23:30;;;;;;;;;11.33;9.67;;;;;19.45;100.00;101434.25;5051379;28;46058;-72
2022/08/30 05:25:56;;;;;;;;;15.00;13.00;;;;;19.46;100.00;101449.41;5052570;28;45448;-74
2022/08/30 05:28:21;;;;;;;;;12.33;11.00;;;;;19.34;100.00;101435.31;5058652;28;45612;-73
2022/08/30 05:30:46;;;;;;;;;10.00;10.00;;;;;19.37;100.00;101448.63;5052828;28;65266;-73
2022/08/30 05:33:12;;;;;;;;;13.33;11.00;;;;;19.26;100.00;101431.84;5058854;28;45762;-72
2022/08/30 05:35:39;;;;;;;;;12.67;9.00;;;;;19.38;100.00;101452.19;5038960;28;45412;-73
2022/08/30 05:38:05;;;;;;;;;9.33;8.00;;;;;19.36;100.00;101456.69;5047542;28;47769;-78
2022/08/30 05:40:30;;;;;;;;;8.67;8.67;;;;;19.35;100.00;101452.25;5059165;28;45415;-73
2022/08/30 05:42:55;;;;;;;;;9.67;8.33;;;;;19.40;100.00;101454.88;5051419;28;56658;-75
2022/08/30 05:45:21;;;;;;;;;9.67;9.33;;;;;19.41;100.00;101460.19;5049128;28;45503;-74
2022/08/30 05:47:46;;;;;;;;;9.00;8.33;;;;;19.44;100.00;101464.59;5062854;28;46511;-75
2022/08/30 05:50:12;;;;;;;;;8.00;8.00;;;;;19.44;100.00;101467.28;5051100;28;45389;-74
2022/08/30 05:52:39;;;;;;;;;10.00;10.00;;;;;19.44;100.00;101467.28;5065115;28;45526;-74
2022/08/30 05:55:06;;;;;;;;;10.33;9.00;;;;;19.42;100.00;101461.06;5035318;28;46016;-73
2022/08/30 05:57:36;;;;;;;;;13.33;10.00;;;;;19.45;100.00;101463.72;5054104;28;46523;-74
2022/08/30 06:00:05;;;;;;;;;9.67;8.67;;;;;19.42;100.00;101458.41;5048561;28;45438;-75
2022/08/30 06:02:30;;;;;;;;;10.67;9.00;;;;;19.47;100.00;101472.59;5047580;28;45512;-75
2022/08/30 06:04:56;;;;;;;;;12.33;10.67;;;;;19.40;100.00;101460.22;5038386;28;62141;-74
2022/08/30 06:07:21;;;;;;;;;9.67;9.67;;;;;19.43;100.00;101460.16;5037722;28;46551;-73
2022/08/30 06:09:46;;;;;;;;;11.67;8.67;;;;;19.50;100.00;101470.78;5076121;28;45319;-74
2022/08/30 06:12:12;;;;;;;;;12.00;9.67;;;;;19.48;100.00;101461.84;5076311;27;45752;-73
2022/08/30 06:14:38;;;;;;;;;10.67;8.00;;;;;19.56;100.00;101470.66;5070019;28;63502;-73
2022/08/30 06:17:04;;;;;;;;;8.33;7.33;;;;;19.60;100.00;101463.47;5065508;28;46019;-76
2022/08/30 06:19:30;;;;;;;;;9.67;8.00;;;;;19.61;100.00;101470.63;5058299;28;45326;-73
2022/08/30 06:21:55;;;;;;;;;11.33;9.67;;;;;19.61;100.00;101474.19;5075053;27;45596;-73
2022/08/30 06:24:20;;;;;;;;;9.67;8.33;;;;;19.61;100.00;101470.63;5086249;27;51008;-75
2022/08/30 06:26:46;;;;;;;;;11.67;8.00;;;;;19.68;100.00;101469.63;5085233;27;69713;-74
2022/08/30 06:29:19;;;;;;;;;11.33;8.33;;;;;19.67;100.00;101466.97;5074211;27;57554;-75
2022/08/30 06:31:45;;;;;;;;;8.67;8.67;;;;;19.72;100.00;101471.34;5066134;28;45471;-75
2022/08/30 06:34:10;;;;;;;;;10.67;7.00;;;;;19.76;100.00;101473.06;5075984;28;45344;-76
2022/08/30 06:36:35;;;;;;;;;13.33;6.67;;;;;19.76;100.00;101474.84;5073428;28;48953;-76
2022/08/30 06:39:02;;;;;;;;;7.00;7.00;;;;;19.84;100.00;101480.97;5061046;27;45410;-73
2022/08/30 06:41:30;;;;;;;;;8.67;7.67;;;;;19.86;100.00;101469.28;5080194;27;45495;-73
2022/08/30 06:43:56;;;;;;;;;52.67;29.00;;;;;19.89;100.00;101463.00;5071444;28;45433;-74
2022/08/30 06:46:28;;;;;;;;;13.67;8.67;;;;;20.03;100.00;101478.88;5054879;28;45961;-73
2022/08/30 06:48:55;;;;;;;;;11.33;11.33;;;;;20.09;100.00;101473.38;5060780;28;46009;-75
2022/08/30 06:51:29;;;;;;;;;10.33;8.33;;;;;20.14;100.00;101468.84;5066998;28;45849;-75
2022/08/30 06:53:54;;;;;;;;;9.33;8.67;;;;;20.22;100.00;101474.03;5045372;27;45392;-72
2022/08/30 06:56:21;;;;;;;;;7.67;7.00;;;;;20.25;100.00;101474.88;5073248;27;45717;-73
2022/08/30 06:58:47;;;;;;;;;8.00;8.00;;;;;20.25;100.00;101464.16;5064124;28;45488;-76
2022/08/30 07:01:15;;;;;;;;;8.67;8.67;;;;;20.29;100.00;101475.69;5073210;28;45618;-74
2022/08/30 07:03:41;;;;;;;;;11.33;8.00;;;;;20.36;100.00;101480.91;5054777;28;45500;-74
2022/08/30 07:06:06;;;;;;;;;6.33;6.33;;;;;20.42;100.00;101480.78;5054849;28;46124;-74
2022/08/30 07:08:32;;;;;;;;;10.67;9.00;;;;;20.43;100.00;101481.69;5198785;22;60131;-75
2022/08/30 07:10:57;;;;;;;;;9.67;8.00;;;;;20.50;100.00;101483.34;5060796;28;52057;-76
2022/08/30 07:13:23;;;;;;;;;7.00;7.00;;;;;20.56;100.00;101485.03;5074469;28;58343;-76
2022/08/30 07:15:49;;;;;;;;;12.00;8.00;;;;;20.61;100.00;101483.13;5064062;28;60470;-76
2022/08/30 07:21:10;;;;;;;;;10.33;9.33;;;;;20.63;100.00;101482.19;5067340;28;46060;-77
2022/08/30 07:23:36;;;;;;;;;10.67;8.00;;;;;20.70;100.00;101485.63;5073770;28;45554;-76
2022/08/30 07:26:07;;;;;;;;;8.00;7.00;;;;;20.83;100.00;101497.91;5061261;28;45924;-75
2022/08/30 07:28:33;;;;;;;;;11.33;8.00;;;;;20.90;100.00;101488.81;5075008;28;46121;-77
2022/08/30 07:30:58;;;;;;;;;12.33;8.00;;;;;20.96;100.00;101489.59;5076092;28;45352;-74
2022/08/30 07:33:24;;;;;;;;;8.33;8.33;;;;;21.03;100.00;101481.34;5076443;28;45419;-74
2022/08/30 07:35:49;;;;;;;;;6.33;6.33;;;;;21.12;100.00;101486.53;5074967;28;46282;-74
2022/08/30 07:38:14;;;;;;;;;9.67;7.67;;;;;21.23;100.00;101490.78;5072100;28;45393;-74
2022/08/30 07:40:40;;;;;;;;;6.67;6.67;;;;;21.24;100.00;101473.75;5078464;28;60113;-74
2022/08/30 07:43:05;;;;;;;;;12.33;8.00;;;;;21.33;100.00;101484.31;5079339;28;45602;-75
2022/08/30 07:45:31;;;;;;;;;11.00;7.33;;;;;21.35;99.53;101482.47;5077718;28;71473;-74
2022/08/30 07:47:56;;;;;;;;;10.67;8.00;;;;;21.44;100.00;101495.69;5077699;28;45601;-76
2022/08/30 07:50:22;;;;;;;;;8.67;8.00;;;;;21.51;100.00;101491.94;5073139;28;45470;-75
2022/08/30 07:52:47;;;;;;;;;8.67;7.00;;;;;21.51;100.00;101477.63;5069468;28;60291;-74
2022/08/30 07:55:12;;;;;;;;;9.00;8.00;;;;;21.63;100.00;101488.09;5078480;27;46269;-77
2022/08/30 07:57:38;;;;;;;;;7.00;7.00;;;;;21.65;100.00;101483.53;5078243;28;57951;-74
2022/08/30 08:00:04;;;;;;;;;11.00;7.33;;;;;21.74;98.40;101495.88;5078645;28;45357;-74
2022/08/30 08:02:29;;;;;;;;;18.33;11.00;;;;;21.80;96.93;101491.22;5076437;28;45668;-74
2022/08/30 08:04:54;;;;;;;;;9.00;9.00;;;;;21.78;95.58;101482.31;5072803;28;62670;-74
2022/08/30 08:07:20;;;;;;;;;11.33;7.00;;;;;21.80;94.65;101477.78;5074024;27;63901;-74
2022/08/30 08:09:45;;;;;;;;;8.00;8.00;;;;;21.89;94.41;101498.16;5059369;28;45517;-76
2022/08/30 08:12:11;;;;;;;;;9.67;8.00;;;;;21.91;94.54;101488.28;5077943;27;45341;-74
2022/08/30 08:14:36;;;;;;;;;10.00;8.00;;;;;21.94;93.98;101489.09;5078324;27;46262;-74
2022/08/30 08:17:02;;;;;;;;;7.67;7.67;;;;;22.00;93.48;101493.44;5077988;28;64441;-75
2022/08/30 08:19:28;;;;;;;;;6.67;6.67;;;;;21.99;92.29;101494.31;5073241;28;45378;-74
2022/08/30 08:21:55;;;;;;;;;8.00;6.33;;;;;22.08;92.72;101496.78;5068452;27;59685;-74
2022/08/30 08:24:24;;;;;;;;;9.67;8.67;;;;;22.06;91.46;101495.06;5083337;27;47326;-77
2022/08/30 08:26:49;;;;;;;;;9.00;8.00;;;;;22.07;90.25;101496.84;5074892;28;45818;-73
2022/08/30 08:29:14;;;;;;;;;8.67;8.00;;;;;22.09;90.92;101508.41;5076606;27;64931;-74
2022/08/30 08:31:40;;;;;;;;;10.67;8.33;;;;;22.07;90.48;101507.59;5074957;28;57888;-75
2022/08/30 08:34:06;;;;;;;;;10.67;7.33;;;;;22.13;90.71;101512.84;5075496;28;46178;-74
2022/08/30 08:36:33;;;;;;;;;8.00;8.00;;;;;22.17;90.87;101515.41;5075861;28;45654;-74
2022/08/30 08:38:59;;;;;;;;;6.67;6.00;;;;;22.18;90.78;101505.53;5075577;28;45339;-75
2022/08/30 08:41:42;;;;;;;;;11.00;9.00;;;;;22.31;89.92;101517.72;5078081;28;45495;-73
2022/08/30 08:44:13;;;;;;;;;8.00;8.00;;;;;22.35;89.80;101511.34;5078020;28;47129;-74
2022/08/30 08:47:10;;;;;;;;;11.33;10.00;;;;;22.48;88.53;101515.47;5056951;28;45564;-76
2022/08/30 08:49:38;;;;;;;;;10.33;8.67;;;;;22.58;87.30;101528.66;5073075;28;45456;-74
2022/08/30 08:54:59;;;;;;;;;10.00;9.00;;;;;22.74;86.82;101524.59;5057520;28;45769;-74
2022/08/30 08:57:25;;;;;;;;;12.00;9.00;;;;;22.81;87.07;101512.75;5059450;28;45321;-75
2022/08/30 08:59:53;;;;;;;;;8.00;6.67;;;;;22.95;85.84;101533.91;5061377;28;45500;-75
2022/08/30 09:02:24;;;;;;;;;8.00;8.00;;;;;23.00;86.11;101527.47;5074634;28;45543;-74
2022/08/30 09:04:50;;;;;;;;;9.00;7.67;;;;;23.10;85.78;101528.09;5082316;27;46504;-74
2022/08/30 09:07:25;;;;;;;;;9.00;9.00;;;;;23.23;86.05;101542.97;5059406;28;45486;-75
2022/08/30 09:09:50;;;;;;;;;12.00;10.33;;;;;23.36;85.21;101542.59;5037598;28;45526;-75
2022/08/30 09:12:16;;;;;;;;;10.00;8.33;;;;;23.46;85.55;101533.28;5074236;28;47538;-75
2022/08/30 09:14:48;;;;;;;;;11.67;8.67;;;;;23.45;84.57;101518.94;5075019;28;45504;-75
2022/08/30 09:17:16;;;;;;;;;9.67;9.00;;;;;23.66;83.59;101538.09;5065483;28;45351;-74
2022/08/30 09:19:45;;;;;;;;;9.00;7.00;;;;;23.72;83.25;101537.88;5074985;28;45494;-74
2022/08/30 09:22:26;;;;;;;;;7.00;7.00;;;;;23.79;83.55;101529.53;5063619;28;45475;-75
2022/08/30 09:24:59;;;;;;;;;9.33;8.33;;;;;23.88;83.85;101522.09;5076043;28;45370;-75
2022/08/30 09:27:31;;;;;;;;;9.00;8.00;;;;;24.03;83.70;101535.94;5057588;28;45788;-76
2022/08/30 09:30:27;;;;;;;;;9.33;7.33;;;;;24.14;82.96;101534.69;5075988;28;45938;-74
2022/08/30 09:33:01;;;;;;;;;12.00;9.00;;;;;24.22;81.91;101530.78;5066455;28;45486;-75
2022/08/30 09:35:47;;;;;;;;;9.00;6.67;;;;;24.33;82.10;101535.81;5075693;28;45667;-73
2022/08/30 09:38:29;;;;;;;;;11.67;8.00;;;;;24.40;80.42;101541.94;5073738;28;45449;-73
2022/08/30 09:41:01;;;;;;;;;10.00;8.00;;;;;24.38;81.00;101522.19;5074476;28;45714;-76
2022/08/30 09:43:32;;;;;;;;;14.00;9.00;;;;;24.50;80.62;101538.84;5071165;28;45423;-76
2022/08/30 09:45:57;;;;;;;;;11.67;7.67;;;;;24.55;80.17;101531.47;5071955;28;46398;-78
2022/08/30 09:48:25;;;;;;;;;8.00;8.00;;;;;24.63;79.91;101539.28;5074122;28;45658;-76
2022/08/30 09:51:03;;;;;;;;;11.00;8.67;;;;;24.65;79.05;101532.00;5075046;28;45345;-78
2022/08/30 09:53:33;;;;;;;;;10.67;7.00;;;;;24.71;78.16;101536.28;5089913;27;45586;-73
2022/08/30 09:56:24;;;;;;;;;10.00;8.67;;;;;24.80;79.03;101542.25;5053202;28;45452;-75
2022/08/30 09:59:15;;;;;;;;;8.33;8.33;;;;;24.91;78.92;101549.94;5050888;28;45498;-76
2022/08/30 10:01:52;;;;;;;;;8.67;8.67;;;;;25.00;79.07;101546.03;5074556;28;45466;-76
2022/08/30 10:04:58;;;;;;;;;17.00;8.00;;;;;25.04;78.86;101536.88;5054164;28;45669;-77
2022/08/30 10:07:44;;;;;;;;;11.00;9.67;;;;;25.17;78.68;101549.00;5050173;28;46717;-75
2022/08/30 10:10:20;;;;;;;;;9.00;9.00;;;;;25.23;77.90;101547.88;5072419;28;45398;-77
2022/08/30 10:13:01;;;;;;;;;10.67;10.00;;;;;25.26;76.96;101548.66;5059844;28;45429;-79
2022/08/30 10:15:47;;;;;;;;;10.00;7.00;;;;;25.32;76.58;101548.41;5074619;28;45549;-77
2022/08/30 10:18:39;;;;;;;;;11.67;10.67;;;;;25.41;75.44;101551.69;5054817;28;46638;-77
2022/08/30 10:21:04;;;;;;;;;11.33;8.33;;;;;25.44;75.30;101549.75;5061071;28;46058;-76
2022/08/30 10:23:40;;;;;;;;;8.33;7.67;;;;;25.48;74.49;101545.09;5076251;28;45449;-76
2022/08/30 10:26:22;;;;;;;;;8.67;8.00;;;;;25.48;74.64;101539.69;5061889;28;45551;-76
2022/08/30 10:29:08;;;;;;;;;13.67;8.00;;;;;25.52;73.60;101544.94;5061587;28;47475;-76
2022/08/30 10:31:46;;;;;;;;;10.33;8.00;;;;;25.54;73.64;101534.91;5073880;28;45443;-76
2022/08/30 10:34:20;;;;;;;;;8.00;8.00;;;;;25.67;74.02;101542.53;5055953;28;45575;-76
2022/08/30 10:36:51;;;;;;;;;12.00;9.67;;;;;25.72;72.69;101541.38;5058530;28;45574;-76
2022/08/30 10:39:21;;;;;;;;;10.33;9.00;;;;;25.77;72.55;101541.25;5049349;28;47421;-75
2022/08/30 10:41:57;;;;;;;;;13.00;11.33;;;;;25.78;72.49;101540.28;5069413;28;45474;-75
2022/08/30 10:44:33;;;;;;;;;11.00;10.00;;;;;25.78;71.99;101541.19;5056491;28;45959;-75
2022/08/30 10:47:08;;;;;;;;;10.00;9.00;;;;;25.81;71.89;101532.94;5055672;28;45611;-75
2022/08/30 10:49:45;;;;;;;;;12.33;9.00;;;;;25.83;72.15;101544.59;5073170;28;47489;-75
2022/08/30 10:52:10;;;;;;;;;11.67;8.67;;;;;25.86;71.53;101543.56;5076147;28;45460;-75
2022/08/30 10:54:39;;;;;;;;;9.00;9.00;;;;;25.87;71.42;101542.63;5067034;28;45514;-74
2022/08/30 10:57:05;;;;;;;;;10.00;8.33;;;;;25.91;71.24;101540.69;5074475;28;45431;-74
2022/08/30 10:59:31;;;;;;;;;11.33;9.67;;;;;25.92;70.97;101540.63;5077839;28;46353;-74
2022/08/30 11:02:15;;;;;;;;;10.33;9.00;;;;;25.94;70.68;101543.25;5060963;28;45161;-73
2022/08/30 11:04:52;;;;;;;;;10.00;8.00;;;;;25.95;70.15;101540.50;5079994;28;45450;-75
2022/08/30 11:07:31;;;;;;;;;10.33;8.00;;;;;25.96;70.65;101553.06;5077775;28;45282;-74
2022/08/30 11:09:59;;;;;;;;;9.00;9.00;;;;;25.96;69.58;101553.06;5074614;28;46414;-74
2022/08/30 11:12:49;;;;;;;;;10.00;8.00;;;;;25.98;70.00;101548.47;5079017;28;45436;-72
2022/08/30 11:15:19;;;;;;;;;8.67;8.00;;;;;26.05;70.31;101547.28;5078319;28;45404;-75
2022/08/30 11:17:58;;;;;;;;;12.00;8.00;;;;;26.10;70.04;101545.28;5079691;28;45558;-75
2022/08/30 11:20:31;;;;;;;;;16.00;10.67;;;;;26.13;69.29;101541.53;5059433;28;46602;-75
2022/08/30 11:23:21;;;;;;;;;9.00;9.00;;;;;26.17;69.60;101543.16;5058602;28;45371;-74
2022/08/30 11:26:12;;;;;;;;;9.67;8.00;;;;;26.22;68.98;101553.81;5051497;28;45555;-74
2022/08/30 11:28:58;;;;;;;;;12.00;10.33;;;;;26.25;68.63;101548.25;5078609;28;45155;-74
2022/08/30 11:31:28;;;;;;;;;10.67;10.00;;;;;26.30;69.08;101543.50;5076152;28;46576;-74